createdAt,value
2023-03-27T08:19:19.067Z,63.02
2023-03-27T08:21:51.019Z,59.66
2023-03-27T08:24:18.289Z,57.28
2023-03-27T08:27:20.497Z,57.26
2023-03-27T08:29:47.874Z,54.14
2023-03-27T08:32:14.757Z,52.28
2023-03-27T08:34:43.614Z,52.27
2023-03-27T08:37:10.568Z,50.99
2023-03-27T08:39:58.991Z,51.56
2023-03-27T08:42:34.703Z,49.48
2023-03-27T08:45:08.677Z,51.51
2023-03-27T08:47:47.777Z,47.70
2023-03-27T08:50:44.589Z,49.49
2023-03-27T08:53:31.093Z,48.51
2023-03-27T08:55:59.556Z,49.94
2023-03-27T08:58:34.827Z,48.77
2023-03-27T09:01:45.761Z,48.31
2023-03-27T09:04:41.336Z,46.79
2023-03-27T09:07:20.276Z,47.08
2023-03-27T09:10:38.197Z,47.50
2023-03-27T09:13:25.225Z,48.38
2023-03-27T09:16:02.515Z,46.77
2023-03-27T09:18:37.043Z,44.88
2023-03-27T09:21:18.229Z,45.18
2023-03-27T09:23:46.685Z,43.44
2023-03-27T09:26:36.532Z,45.66
2023-03-27T09:29:20.840Z,45.92
2023-03-27T09:31:57.778Z,43.18
2023-03-27T09:34:30.731Z,44.39
2023-03-27T09:36:59.183Z,43.54
2023-03-27T09:39:30.293Z,41.89
2023-03-27T09:42:19.174Z,40.06
2023-03-27T09:44:50.615Z,40.91
2023-03-27T09:47:23.400Z,42.11
2023-03-27T09:49:56.871Z,40.60
2023-03-27T09:52:42.081Z,42.49
2023-03-27T09:55:35.608Z,41.97
2023-03-27T09:58:23.897Z,44.53
2023-03-27T10:01:16.767Z,42.83
2023-03-27T10:03:53.277Z,42.15
2023-03-27T10:06:38.901Z,42.55
2023-03-27T10:09:26.756Z,42.60
2023-03-27T10:12:24.195Z,39.52
2023-03-27T10:14:52.830Z,39.83
2023-03-27T10:17:40.290Z,41.10
2023-03-27T10:20:17.865Z,40.51
2023-03-27T10:23:01.022Z,40.85
2023-03-27T10:25:38.874Z,43.65
2023-03-27T10:28:29.591Z,44.24
2023-03-27T10:31:38.273Z,42.50
2023-03-27T10:34:36.947Z,42.32
2023-03-27T10:37:28.702Z,40.91
2023-03-27T10:40:20.006Z,41.92
2023-03-27T10:42:50.486Z,39.49
2023-03-27T10:45:18.847Z,40.23
2023-03-27T10:48:00.639Z,40.72
2023-03-27T10:50:33.831Z,38.84
2023-03-27T10:53:15.004Z,38.93
2023-03-27T10:55:58.241Z,39.34
2023-03-27T10:58:34.267Z,36.61
2023-03-27T11:01:11.405Z,36.10
2023-03-27T11:03:53.438Z,35.22
2023-03-27T11:06:23.396Z,32.88
2023-03-27T11:09:02.206Z,32.14
2023-03-27T11:11:34.152Z,33.45
2023-03-27T11:14:04.069Z,34.52
2023-03-27T11:16:41.760Z,33.42
2023-03-27T11:19:27.231Z,36.21
2023-03-27T11:22:15.701Z,35.73
2023-03-27T11:25:07.382Z,37.40
2023-03-27T11:27:56.177Z,39.74
2023-03-27T11:30:44.017Z,41.44
2023-03-27T11:33:29.986Z,39.50
2023-03-27T11:36:27.401Z,39.15
2023-03-27T11:39:06.738Z,35.24
2023-03-27T11:41:34.127Z,32.86
2023-03-27T11:44:02.023Z,30.49
2023-03-27T11:47:34.962Z,29.52
2023-03-27T11:50:15.961Z,30.78
2023-03-27T11:52:52.417Z,31.46
2023-03-27T11:55:52.415Z,34.00
2023-03-27T11:59:02.856Z,32.99
2023-03-27T12:01:49.707Z,34.96
2023-03-27T12:04:24.282Z,33.42
2023-03-27T12:07:36.092Z,29.45
2023-03-27T12:10:15.327Z,27.53
2023-03-27T12:13:47.776Z,26.09
2023-03-27T12:16:40.556Z,26.72
2023-03-27T12:19:38.281Z,28.14
2023-03-27T12:22:26.223Z,28.33
2023-03-27T12:25:27.408Z,30.24
2023-03-27T12:28:23.705Z,31.04
2023-03-27T12:31:25.064Z,33.36
2023-03-27T12:34:00.254Z,31.40
2023-03-27T12:36:28.141Z,30.01
2023-03-27T12:38:56.074Z,30.45
2023-03-27T12:41:26.094Z,32.28
2023-03-27T12:44:02.147Z,34.17
2023-03-27T12:46:41.528Z,34.92
2023-03-27T12:49:12.193Z,36.52
2023-03-27T12:51:52.071Z,37.39
2023-03-27T12:55:06.394Z,36.65
2023-03-27T12:58:10.285Z,35.58
2023-03-27T13:01:00.830Z,36.89
2023-03-27T13:04:09.748Z,37.58
2023-03-27T13:06:39.918Z,40.24
2023-03-27T13:09:27.766Z,44.98
2023-03-27T13:12:21.685Z,44.04
2023-03-27T13:15:08.777Z,37.74
2023-03-27T13:17:42.365Z,34.54
2023-03-27T13:20:12.269Z,30.87
2023-03-27T13:23:10.473Z,28.14
2023-03-27T13:25:49.425Z,26.51
2023-03-27T13:28:25.342Z,24.97
2023-03-27T13:31:01.242Z,24.28
2023-03-27T13:33:45.709Z,24.06
2023-03-27T13:36:23.074Z,23.23
2023-03-27T13:38:53.198Z,23.11
2023-03-27T13:41:48.690Z,26.66
2023-03-27T13:44:43.860Z,27.85
2023-03-27T13:47:54.562Z,29.29
2023-03-27T13:50:25.100Z,30.78
2023-03-27T13:53:14.569Z,32.84
2023-03-27T13:56:12.441Z,32.25
2023-03-27T13:59:22.484Z,32.75
2023-03-27T14:02:09.979Z,36.88
2023-03-27T14:04:57.560Z,43.10
2023-03-27T14:08:08.136Z,46.88
2023-03-27T14:11:37.743Z,50.50
2023-03-27T14:14:23.784Z,50.56
2023-03-27T14:17:31.372Z,51.91
2023-03-27T14:20:07.669Z,51.66
2023-03-27T14:22:57.130Z,52.63
2023-03-27T14:25:44.010Z,53.79
2023-03-27T14:28:49.577Z,51.78
2023-03-27T14:31:19.367Z,51.37
2023-03-27T14:34:16.056Z,51.07
2023-03-27T14:36:47.746Z,50.35
2023-03-27T14:39:22.810Z,51.83
2023-03-27T14:41:58.396Z,49.30
2023-03-27T14:44:29.654Z,48.48
2023-03-27T14:47:09.423Z,49.88
2023-03-27T14:49:47.080Z,49.30
2023-03-27T14:52:25.238Z,49.92
2023-03-27T14:55:18.246Z,49.33
2023-03-27T14:57:50.607Z,49.79
2023-03-27T15:00:20.925Z,50.25
2023-03-27T15:02:50.327Z,50.26
2023-03-27T15:05:20.031Z,50.02
2023-03-27T15:07:53.107Z,49.82
2023-03-27T15:10:30.732Z,49.55
2023-03-27T15:13:10.586Z,50.37
2023-03-27T15:15:43.383Z,50.14
2023-03-27T15:18:15.735Z,51.22
2023-03-27T15:20:43.703Z,52.79
2023-03-27T15:23:20.543Z,52.93
2023-03-27T15:25:56.587Z,52.67
2023-03-27T15:28:29.180Z,52.23
2023-03-27T15:30:58.385Z,53.29
2023-03-27T15:33:35.391Z,52.03
2023-03-27T15:36:05.983Z,53.19
2023-03-27T15:38:34.782Z,52.68
2023-03-27T15:41:17.343Z,52.15
2023-03-27T15:43:44.615Z,51.48
2023-03-27T15:46:20.035Z,52.14
2023-03-27T15:48:55.527Z,52.70
2023-03-27T15:51:22.599Z,52.00
2023-03-27T15:53:56.042Z,52.20
2023-03-27T15:56:28.028Z,53.02
2023-03-27T15:58:58.223Z,52.80
2023-03-27T16:01:34.850Z,53.13
2023-03-27T16:04:06.762Z,53.16
2023-03-27T16:06:37.779Z,54.71
2023-03-27T16:09:10.392Z,53.90
2023-03-27T16:11:45.537Z,52.30
2023-03-27T16:14:21.576Z,52.17
2023-03-27T16:16:49.941Z,50.21
2023-03-27T16:19:16.735Z,50.29
2023-03-27T16:21:57.000Z,52.52
2023-03-27T16:24:24.128Z,52.84
2023-03-27T16:26:52.626Z,52.79
2023-03-27T16:29:21.300Z,53.96
2023-03-27T16:31:48.145Z,53.94
2023-03-27T16:34:22.165Z,52.49
2023-03-27T16:36:49.906Z,53.49
2023-03-27T16:39:16.722Z,53.04
2023-03-27T16:41:43.666Z,52.96
2023-03-27T16:44:10.494Z,53.02
2023-03-27T16:46:37.558Z,52.93
2023-03-27T16:49:04.386Z,53.20
2023-03-27T16:51:31.352Z,52.44
2023-03-27T16:53:58.193Z,51.54
2023-03-27T16:56:25.147Z,51.75
2023-03-27T16:58:51.978Z,51.92
2023-03-27T17:01:18.821Z,51.36
2023-03-27T17:03:45.966Z,52.12
2023-03-27T17:06:12.939Z,52.00
2023-03-27T17:08:39.840Z,52.26
2023-03-27T17:11:12.072Z,51.73
2023-03-27T17:13:42.902Z,52.23
2023-03-27T17:16:10.383Z,52.02
2023-03-27T17:18:37.552Z,53.20
2023-03-27T17:21:04.539Z,51.76
2023-03-27T17:23:31.958Z,53.08
2023-03-27T17:26:03.033Z,53.24
2023-03-27T17:28:30.606Z,53.59
2023-03-27T17:31:04.574Z,54.03
2023-03-27T17:33:32.772Z,53.60
2023-03-27T17:35:59.871Z,53.75
2023-03-27T17:38:26.994Z,53.80
2023-03-27T17:40:54.020Z,54.10
2023-03-27T17:43:20.915Z,54.17
2023-03-27T17:45:48.207Z,53.99
2023-03-27T17:48:16.135Z,54.54
2023-03-27T17:50:49.839Z,54.88
2023-03-27T17:53:26.870Z,54.75
2023-03-27T17:55:53.873Z,54.83
2023-03-27T17:59:46.586Z,55.54
2023-03-27T18:02:19.441Z,55.46
2023-03-27T18:04:52.275Z,56.14
2023-03-27T18:07:23.410Z,56.43
2023-03-27T18:09:50.603Z,56.49
2023-03-27T18:12:17.768Z,56.40
2023-03-27T18:14:46.759Z,54.94
2023-03-27T18:17:15.999Z,54.99
2023-03-27T18:19:42.912Z,53.97
2023-03-27T18:22:10.814Z,53.80
2023-03-27T18:24:37.730Z,54.33
2023-03-27T18:27:04.516Z,53.76
2023-03-27T18:29:31.385Z,55.13
2023-03-27T18:31:58.351Z,55.05
2023-03-27T18:34:25.556Z,54.28
2023-03-27T18:36:52.967Z,55.37
2023-03-27T18:39:19.782Z,54.61
2023-03-27T18:41:46.704Z,54.12
2023-03-27T18:44:13.890Z,55.24
2023-03-27T18:46:41.015Z,55.75
2023-03-27T18:49:21.532Z,56.23
2023-03-27T18:51:51.477Z,55.88
2023-03-27T18:54:18.320Z,56.47
2023-03-27T18:56:45.213Z,55.93
2023-03-27T18:59:12.053Z,57.54
2023-03-27T19:01:39.066Z,58.38
2023-03-27T19:04:06.045Z,57.63
2023-03-27T19:06:33.808Z,58.23
2023-03-27T19:09:01.101Z,58.97
2023-03-27T19:11:27.921Z,58.47
2023-03-27T19:14:07.256Z,58.96
2023-03-27T19:16:43.139Z,60.18
2023-03-27T19:19:29.365Z,61.14
2023-03-27T19:22:14.335Z,61.76
2023-03-27T19:25:04.334Z,61.13
2023-03-27T19:27:38.622Z,61.42
2023-03-27T19:30:07.953Z,62.33
2023-03-27T19:32:34.928Z,62.60
2023-03-27T19:35:02.185Z,63.11
2023-03-27T19:37:30.008Z,64.65
2023-03-27T19:39:58.993Z,64.43
2023-03-27T19:42:28.644Z,63.33
2023-03-27T19:44:55.862Z,63.23
2023-03-27T19:47:22.765Z,64.60
2023-03-27T19:49:49.630Z,64.46
2023-03-27T19:52:20.294Z,64.87
2023-03-27T19:54:47.154Z,65.05
2023-03-27T19:57:14.386Z,65.93
2023-03-27T19:59:41.319Z,66.04
2023-03-27T20:02:11.218Z,66.03
2023-03-27T20:04:37.994Z,67.08
2023-03-27T20:07:07.193Z,67.96
2023-03-27T20:09:34.636Z,68.07
2023-03-27T20:12:01.620Z,66.87
2023-03-27T20:14:29.262Z,66.81
2023-03-27T20:16:56.199Z,66.97
2023-03-27T20:19:27.031Z,67.35
2023-03-27T20:21:55.665Z,67.45
2023-03-27T20:24:22.504Z,67.64
2023-03-27T20:26:57.296Z,67.59
2023-03-27T20:29:26.301Z,68.04
2023-03-27T20:31:53.229Z,67.18
2023-03-27T20:34:22.857Z,68.16
2023-03-27T20:36:53.551Z,68.17
2023-03-27T20:39:33.779Z,67.68
2023-03-27T20:42:00.588Z,68.71
2023-03-27T20:44:35.629Z,68.50
2023-03-27T20:47:11.223Z,68.52
2023-03-27T20:49:44.978Z,67.57
2023-03-27T20:52:14.789Z,66.87
2023-03-27T20:54:42.067Z,67.92
2023-03-27T20:57:11.441Z,68.23
2023-03-27T20:59:38.523Z,68.02
2023-03-27T21:02:05.368Z,69.41
2023-03-27T21:04:32.492Z,70.79
2023-03-27T21:06:59.325Z,69.06
2023-03-27T21:09:27.282Z,69.11
2023-03-27T21:11:55.380Z,68.21
2023-03-27T21:14:22.772Z,68.35
2023-03-27T21:16:50.242Z,68.77
2023-03-27T21:19:19.749Z,70.86
2023-03-27T21:21:46.558Z,70.08
2023-03-27T21:24:13.603Z,71.03
2023-03-27T21:26:40.459Z,73.44
2023-03-27T21:29:10.834Z,73.99
2023-03-27T21:31:42.234Z,74.63
2023-03-27T21:34:09.179Z,74.40
2023-03-27T21:36:38.195Z,74.68
2023-03-27T21:39:05.619Z,75.20
2023-03-27T21:41:32.600Z,75.22
2023-03-27T21:43:59.493Z,75.17
2023-03-27T21:46:26.605Z,76.47
2023-03-27T21:48:53.470Z,77.21
2023-03-27T21:51:20.480Z,77.15
2023-03-27T21:53:47.320Z,76.74
2023-03-27T21:56:14.305Z,77.16
2023-03-27T21:58:41.258Z,76.88
2023-03-27T22:01:08.459Z,76.59
2023-03-27T22:03:35.784Z,77.10
2023-03-27T22:06:11.839Z,77.30
2023-03-27T22:08:42.143Z,76.73
2023-03-27T22:11:11.203Z,77.50
2023-03-27T22:13:38.981Z,77.23
2023-03-27T22:16:14.983Z,76.27
2023-03-27T22:18:42.536Z,77.04
2023-03-27T22:21:29.612Z,78.30
2023-03-27T22:23:57.911Z,77.80
2023-03-27T22:26:27.395Z,78.63
2023-03-27T22:28:54.494Z,78.16
2023-03-27T22:31:22.541Z,78.14
2023-03-27T22:33:50.340Z,77.65
2023-03-27T22:36:17.453Z,77.40
2023-03-27T22:38:44.329Z,77.09
2023-03-27T22:41:12.242Z,77.30
2023-03-27T22:43:39.244Z,77.33
2023-03-27T22:46:14.458Z,76.42
2023-03-27T22:48:41.523Z,76.31
2023-03-27T22:51:09.815Z,75.31
2023-03-27T22:53:36.897Z,74.73
2023-03-27T22:56:04.521Z,75.13
2023-03-27T22:58:31.710Z,75.55
2023-03-27T23:00:58.687Z,74.79
2023-03-27T23:03:26.973Z,76.07
2023-03-27T23:05:54.861Z,76.19
2023-03-27T23:08:24.340Z,74.09
2023-03-27T23:10:59.642Z,73.21
2023-03-27T23:13:27.665Z,72.35
2023-03-27T23:15:54.770Z,72.31
2023-03-27T23:18:24.698Z,71.54
2023-03-27T23:20:59.890Z,70.03
2023-03-27T23:23:27.607Z,70.19
2023-03-27T23:25:55.610Z,70.94
2023-03-27T23:28:22.521Z,72.80
2023-03-27T23:31:01.029Z,72.82
2023-03-27T23:33:30.461Z,69.90
2023-03-27T23:36:09.055Z,70.30
2023-03-27T23:38:36.168Z,71.11
2023-03-27T23:41:03.957Z,70.87
2023-03-27T23:43:31.507Z,71.37
2023-03-27T23:46:01.353Z,71.55
2023-03-27T23:48:29.518Z,70.10
2023-03-27T23:50:57.238Z,70.49
2023-03-27T23:53:28.447Z,70.53
2023-03-27T23:55:56.976Z,70.60
2023-03-27T23:58:24.751Z,69.75
